createdAt,value
2019-01-25T00:01:54.857Z,46.94
2019-01-25T00:04:23.058Z,46.15
2019-01-25T00:06:50.992Z,46.92
2019-01-25T00:09:19.111Z,47.43
2019-01-25T00:11:47.262Z,47.08
2019-01-25T00:14:15.789Z,48.02
2019-01-25T00:16:44.164Z,47.51
2019-01-25T00:19:12.289Z,47.08
2019-01-25T00:21:40.384Z,47.28
2019-01-25T00:24:20.945Z,47.33
2019-01-25T00:26:49.329Z,46.92
2019-01-25T00:29:17.577Z,47.28
2019-01-25T00:31:45.685Z,47.00
2019-01-25T00:34:13.541Z,47.43
2019-01-25T00:36:41.640Z,46.93
2019-01-25T00:39:12.001Z,46.83
2019-01-25T00:41:40.330Z,47.78
2019-01-25T00:44:08.436Z,48.15
2019-01-25T00:46:36.710Z,47.21
2019-01-25T00:49:05.123Z,47.61
2019-01-25T00:51:32.968Z,47.02
2019-01-25T00:54:00.846Z,46.81
2019-01-25T00:56:28.679Z,47.80
2019-01-25T00:59:07.273Z,47.61
2019-01-25T01:01:35.111Z,46.94
2019-01-25T01:04:03.151Z,47.23
2019-01-25T01:06:31.158Z,46.97
2019-01-25T01:08:58.925Z,46.46
2019-01-25T01:11:26.683Z,47.12
2019-01-25T01:13:54.436Z,47.32
2019-01-25T01:16:22.183Z,47.02
2019-01-25T01:18:50.023Z,46.71
2019-01-25T01:21:17.764Z,46.87
2019-01-25T01:23:45.620Z,46.81
2019-01-25T01:26:13.382Z,46.05
2019-01-25T01:28:41.135Z,45.22
2019-01-25T01:31:08.887Z,46.03
2019-01-25T01:33:36.734Z,46.34
2019-01-25T01:36:04.479Z,46.03
2019-01-25T01:38:35.530Z,46.46
2019-01-25T01:41:09.401Z,46.13
2019-01-25T01:43:37.137Z,45.89
2019-01-25T01:46:04.916Z,46.16
2019-01-25T01:48:32.748Z,45.94
2019-01-25T01:51:00.884Z,46.25
2019-01-25T01:53:28.651Z,45.45
2019-01-25T01:55:56.435Z,46.07
2019-01-25T01:58:24.183Z,46.01
2019-01-25T02:00:51.931Z,45.91
2019-01-25T02:03:19.686Z,46.09
2019-01-25T02:05:47.548Z,46.10
2019-01-25T02:08:15.295Z,45.85
2019-01-25T02:10:43.056Z,45.82
2019-01-25T02:13:11.060Z,45.84
2019-01-25T02:15:38.831Z,45.94
2019-01-25T02:18:06.611Z,45.43
2019-01-25T02:20:34.373Z,44.98
2019-01-25T02:23:02.252Z,46.30
2019-01-25T02:25:40.955Z,46.51
2019-01-25T02:28:08.728Z,46.18
2019-01-25T02:30:36.527Z,46.29
2019-01-25T02:33:04.427Z,46.25
2019-01-25T02:38:46.484Z,46.98
2019-01-25T02:41:14.355Z,46.08
2019-01-25T02:43:42.115Z,45.95
2019-01-25T02:46:10.119Z,46.11
2019-01-25T02:48:37.976Z,46.06
2019-01-25T02:51:05.921Z,45.46
2019-01-25T02:53:33.670Z,45.51
2019-01-25T02:56:01.523Z,45.88
2019-01-25T02:58:29.272Z,45.70
2019-01-25T03:00:57.089Z,46.28
2019-01-25T03:03:24.858Z,45.64
2019-01-25T03:05:52.700Z,45.86
2019-01-25T03:08:20.513Z,46.83
2019-01-25T03:10:48.336Z,47.44
2019-01-25T03:13:16.071Z,47.07
2019-01-25T03:15:58.053Z,45.76
2019-01-25T03:18:19.426Z,46.69
2019-01-25T03:20:47.333Z,47.35
2019-01-25T03:23:15.173Z,46.27
2019-01-25T03:25:42.997Z,47.01
2019-01-25T03:28:10.715Z,46.08
2019-01-25T03:30:38.545Z,46.89
2019-01-25T03:33:06.555Z,46.58
2019-01-25T03:35:34.389Z,46.11
2019-01-25T03:38:02.155Z,46.23
2019-01-25T03:40:29.946Z,45.95
2019-01-25T03:42:57.756Z,45.60
2019-01-25T03:45:25.671Z,45.78
2019-01-25T03:47:53.520Z,45.71
2019-01-25T03:50:22.410Z,45.76
2019-01-25T03:52:50.130Z,45.92
2019-01-25T03:55:17.863Z,45.64
2019-01-25T03:58:03.087Z,45.88
2019-01-25T04:00:30.880Z,45.95
2019-01-25T04:02:58.796Z,45.50
2019-01-25T04:05:26.745Z,45.48
2019-01-25T04:07:54.538Z,45.36
2019-01-25T04:10:23.114Z,45.46
2019-01-25T04:12:50.938Z,45.60
2019-01-25T04:15:19.766Z,45.65
2019-01-25T04:17:47.540Z,45.58
2019-01-25T04:20:15.710Z,45.79
2019-01-25T04:22:43.461Z,45.69
2019-01-25T04:25:12.317Z,45.64
2019-01-25T04:27:40.187Z,45.63
2019-01-25T04:30:09.402Z,45.69
2019-01-25T04:32:44.964Z,45.65
2019-01-25T04:35:12.873Z,45.79
2019-01-25T04:37:40.640Z,45.58
2019-01-25T04:40:09.830Z,45.63
2019-01-25T04:42:38.084Z,45.72
2019-01-25T04:45:06.248Z,45.61
2019-01-25T04:47:33.967Z,45.75
2019-01-25T04:50:01.759Z,45.83
2019-01-25T04:52:29.499Z,45.90
2019-01-25T04:54:57.284Z,45.91
2019-01-25T04:57:25.339Z,45.82
2019-01-25T04:59:54.671Z,45.84
2019-01-25T05:02:24.665Z,45.84
2019-01-25T05:04:52.453Z,45.90
2019-01-25T05:07:20.391Z,45.98
2019-01-25T05:12:22.871Z,45.76
2019-01-25T05:14:50.602Z,45.73
2019-01-25T05:17:18.737Z,45.63
2019-01-25T05:19:46.472Z,45.76
2019-01-25T05:22:14.294Z,45.73
2019-01-25T05:24:42.004Z,45.70
2019-01-25T05:27:09.748Z,45.69
2019-01-25T05:30:06.184Z,45.65
2019-01-25T05:32:34.186Z,45.83
2019-01-25T05:35:01.912Z,45.83
2019-01-25T05:37:36.649Z,45.78
2019-01-25T05:40:05.121Z,45.81
2019-01-25T05:42:32.832Z,45.63
2019-01-25T05:45:02.738Z,45.78
2019-01-25T05:47:30.474Z,45.75
2019-01-25T05:49:58.491Z,45.88
2019-01-25T05:52:26.207Z,45.92
2019-01-25T05:54:53.962Z,45.77
2019-01-25T05:57:21.698Z,45.89
2019-01-25T05:59:50.075Z,45.95
2019-01-25T06:02:17.931Z,45.73
2019-01-25T06:04:45.764Z,45.67
2019-01-25T06:07:13.602Z,45.54
2019-01-25T06:09:41.408Z,45.77
2019-01-25T06:12:09.192Z,45.94
2019-01-25T06:14:48.951Z,45.89
2019-01-25T06:17:12.786Z,45.91
2019-01-25T06:19:40.632Z,45.91
2019-01-25T06:22:08.455Z,45.93
2019-01-25T06:24:36.288Z,45.76
2019-01-25T06:27:04.103Z,45.82
2019-01-25T06:29:32.347Z,45.73
2019-01-25T06:32:00.357Z,45.71
2019-01-25T06:34:28.168Z,45.88
2019-01-25T06:36:55.960Z,45.63
2019-01-25T06:39:23.843Z,45.59
2019-01-25T06:41:51.804Z,45.69
2019-01-25T06:44:19.583Z,45.45
2019-01-25T06:46:47.411Z,45.57
2019-01-25T06:49:15.243Z,45.81
2019-01-25T06:51:43.073Z,45.86
2019-01-25T06:54:11.029Z,45.85
2019-01-25T06:56:58.104Z,46.11
2019-01-25T06:59:33.941Z,46.23
2019-01-25T07:02:06.283Z,46.17
2019-01-25T07:04:46.137Z,46.10
2019-01-25T07:08:13.250Z,46.21
2019-01-25T07:10:04.181Z,46.17
2019-01-25T07:12:32.196Z,46.15
2019-01-25T07:15:00.219Z,46.10
2019-01-25T07:17:47.560Z,46.05
2019-01-25T07:20:15.619Z,46.06
2019-01-25T07:22:43.851Z,46.22
2019-01-25T07:25:16.393Z,46.17
2019-01-25T07:30:59.289Z,45.95
2019-01-25T07:33:32.571Z,45.71
2019-01-25T07:36:09.176Z,45.71
2019-01-25T07:38:59.618Z,45.62
2019-01-25T07:41:23.629Z,45.73
2019-01-25T07:43:50.960Z,45.85
2019-01-25T07:46:30.512Z,46.04
2019-01-25T07:49:03.896Z,46.05
2019-01-25T07:55:03.333Z,45.94
2019-01-25T08:07:21.951Z,46.24
2019-01-25T08:20:19.591Z,46.21
2019-01-25T08:26:20.920Z,45.99
2019-01-25T08:28:51.853Z,45.68
2019-01-25T08:31:19.910Z,45.67
2019-01-25T08:38:06.793Z,45.61
2019-01-25T08:40:41.887Z,45.39
2019-01-25T08:43:19.933Z,44.97
2019-01-25T08:46:25.621Z,44.88
2019-01-25T08:56:15.013Z,44.21
2019-01-25T09:13:43.967Z,44.14
2019-01-25T09:15:27.603Z,44.00
2019-01-25T09:25:00.330Z,43.75
2019-01-25T09:28:55.472Z,43.76
2019-01-25T09:32:23.677Z,43.83
2019-01-25T09:54:02.663Z,43.91
2019-01-25T09:56:55.735Z,43.83
2019-01-25T09:59:24.092Z,43.90
2019-01-25T10:02:09.557Z,43.94
2019-01-25T10:04:47.829Z,43.80
2019-01-25T10:07:15.979Z,43.80
2019-01-25T10:10:03.351Z,43.81
2019-01-25T10:12:46.054Z,43.87
2019-01-25T10:15:36.304Z,43.86
2019-01-25T10:18:24.684Z,43.75
2019-01-25T10:21:04.192Z,43.72
2019-01-25T10:23:32.257Z,43.71
2019-01-25T10:26:03.920Z,43.76
2019-01-25T10:28:34.617Z,43.76
2019-01-25T10:31:02.620Z,43.75
2019-01-25T10:33:30.579Z,43.71
2019-01-25T10:35:58.707Z,43.71
2019-01-25T10:38:55.242Z,43.83
2019-01-25T10:41:31.349Z,43.84
2019-01-25T10:44:10.099Z,43.82
2019-01-25T10:46:39.025Z,43.75
2019-01-25T10:49:07.914Z,44.06
2019-01-25T10:51:35.851Z,44.07
2019-01-25T10:54:28.490Z,43.97
2019-01-25T10:56:57.125Z,44.00
2019-01-25T10:59:30.350Z,44.01
2019-01-25T11:02:22.235Z,44.13
2019-01-25T11:05:28.286Z,43.93
2019-01-25T11:07:56.309Z,44.02
2019-01-25T11:10:26.217Z,44.01
2019-01-25T11:13:00.839Z,44.02
2019-01-25T11:15:24.225Z,43.97
2019-01-25T11:17:52.057Z,44.12
2019-01-25T11:20:20.408Z,43.94
2019-01-25T11:23:26.215Z,44.07
2019-01-25T11:25:55.342Z,44.01
2019-01-25T11:28:29.497Z,43.99
2019-01-25T11:31:33.117Z,43.93
2019-01-25T11:36:24.115Z,43.87
2019-01-25T11:38:55.689Z,43.71
2019-01-25T11:41:32.793Z,43.87
2019-01-25T11:44:43.476Z,43.94
2019-01-25T11:47:19.211Z,43.93
2019-01-25T11:49:48.224Z,43.86
2019-01-25T11:52:16.212Z,43.59
2019-01-25T11:54:55.564Z,43.66
2019-01-25T12:00:36.155Z,43.84
2019-01-25T12:03:19.288Z,43.42
2019-01-25T12:05:56.928Z,43.27
2019-01-25T12:08:45.361Z,43.49
2019-01-25T12:11:26.900Z,43.33
2019-01-25T12:14:01.207Z,43.45
2019-01-25T12:16:40.917Z,43.28
2019-01-25T12:19:43.066Z,42.98
2019-01-25T12:22:08.396Z,43.24
2019-01-25T12:27:50.081Z,43.20
2019-01-25T12:30:38.222Z,43.02
2019-01-25T12:33:07.170Z,42.30
2019-01-25T12:35:36.200Z,42.27
2019-01-25T12:38:16.868Z,42.13
2019-01-25T12:41:11.280Z,42.35
2019-01-25T12:43:42.400Z,42.55
2019-01-25T12:46:25.442Z,42.24
2019-01-25T12:49:00.663Z,41.49
2019-01-25T13:00:21.876Z,40.90
2019-01-25T13:03:02.844Z,41.04
2019-01-25T13:05:34.345Z,41.09
2019-01-25T13:11:01.210Z,41.00
2019-01-25T13:13:33.719Z,41.04
2019-01-25T13:16:15.982Z,41.25
2019-01-25T13:18:50.286Z,41.03
2019-01-25T13:21:59.579Z,41.49
2019-01-25T13:24:44.418Z,41.63
2019-01-25T13:27:12.764Z,41.37
2019-01-25T13:29:49.477Z,41.77
2019-01-25T13:32:52.658Z,41.67
2019-01-25T13:35:40.235Z,41.72
2019-01-25T13:38:08.808Z,41.38
2019-01-25T13:40:59.329Z,41.57
2019-01-25T13:43:39.001Z,41.27
2019-01-25T13:46:13.624Z,41.51
2019-01-25T13:48:41.695Z,41.62
2019-01-25T13:51:21.294Z,41.66
2019-01-25T13:57:13.371Z,41.50
2019-01-25T13:59:41.803Z,41.45
2019-01-25T14:02:34.560Z,41.50
2019-01-25T14:05:16.768Z,41.59
2019-01-25T14:08:02.666Z,41.48
2019-01-25T14:23:04.927Z,41.21
2019-01-25T14:25:33.520Z,41.05
2019-01-25T14:28:11.271Z,41.02
2019-01-25T14:30:43.818Z,40.21
2019-01-25T14:33:14.835Z,40.67
2019-01-25T14:35:43.197Z,40.87
2019-01-25T14:38:30.576Z,40.56
2019-01-25T14:41:10.413Z,40.28
2019-01-25T14:43:40.206Z,40.23
2019-01-25T14:46:19.553Z,40.89
2019-01-25T14:48:49.971Z,41.21
2019-01-25T14:51:38.292Z,40.59
2019-01-25T14:54:28.527Z,40.20
2019-01-25T14:56:56.472Z,40.06
2019-01-25T14:59:28.999Z,40.19
2019-01-25T15:01:59.814Z,39.77
2019-01-25T15:04:59.666Z,40.23
2019-01-25T15:07:27.570Z,40.01
2019-01-25T15:09:58.792Z,40.32
2019-01-25T15:12:27.098Z,40.04
2019-01-25T15:14:55.513Z,39.80
2019-01-25T15:17:29.428Z,39.84
2019-01-25T15:19:57.162Z,40.15
2019-01-25T15:22:27.597Z,40.54
2019-01-25T15:25:15.079Z,40.48
2019-01-25T15:27:43.855Z,40.47
2019-01-25T15:30:16.829Z,40.72
2019-01-25T15:32:51.151Z,40.50
2019-01-25T15:35:20.140Z,40.30
2019-01-25T15:37:48.238Z,40.39
2019-01-25T15:40:16.305Z,40.40
2019-01-25T15:42:44.200Z,40.23
2019-01-25T15:45:12.578Z,40.54
2019-01-25T15:50:33.657Z,40.42
2019-01-25T15:53:01.494Z,40.33
2019-01-25T15:55:29.473Z,40.57
2019-01-25T15:57:57.768Z,40.66
2019-01-25T16:00:26.549Z,40.96
2019-01-25T16:02:54.693Z,40.75
2019-01-25T16:05:23.028Z,40.56
2019-01-25T16:07:51.697Z,40.17
2019-01-25T16:10:20.245Z,40.26
2019-01-25T16:13:03.434Z,40.83
2019-01-25T16:15:37.068Z,41.02
2019-01-25T16:18:08.481Z,40.59
2019-01-25T16:20:36.434Z,40.71
2019-01-25T16:23:04.267Z,40.88
2019-01-25T16:25:33.961Z,40.94
2019-01-25T16:28:48.673Z,40.92
2019-01-25T16:31:39.669Z,40.53
2019-01-25T16:34:12.179Z,40.16
2019-01-25T16:39:31.757Z,40.15
2019-01-25T16:42:11.694Z,40.33
2019-01-25T16:44:40.123Z,39.78
2019-01-25T16:47:14.465Z,39.68
2019-01-25T16:49:48.653Z,39.25
2019-01-25T16:52:19.816Z,39.24
2019-01-25T16:57:36.824Z,38.94
2019-01-25T17:00:06.651Z,39.14
2019-01-25T17:02:43.973Z,39.17
2019-01-25T17:05:49.629Z,39.06
2019-01-25T17:07:57.436Z,39.36
2019-01-25T17:20:56.355Z,40.45
2019-01-25T17:23:24.263Z,40.07
2019-01-25T17:26:32.672Z,39.53
2019-01-25T17:42:06.809Z,39.07
2019-01-25T17:47:54.445Z,39.95
2019-01-25T17:50:25.484Z,39.96
2019-01-25T17:52:54.185Z,40.15
2019-01-25T17:55:22.503Z,39.51
2019-01-25T17:57:57.883Z,39.67
2019-01-25T18:00:35.475Z,39.62
2019-01-25T18:03:46.927Z,39.79
2019-01-25T18:06:21.131Z,39.37
2019-01-25T18:08:51.752Z,39.28
2019-01-25T18:11:20.280Z,39.42
2019-01-25T18:20:51.811Z,39.17
2019-01-25T18:30:22.220Z,38.70
2019-01-25T18:41:02.111Z,37.95
2019-01-25T18:43:05.768Z,38.53
2019-01-25T18:45:39.837Z,37.97
2019-01-25T18:51:42.515Z,37.06
2019-01-25T18:54:26.902Z,37.84
2019-01-25T18:57:34.561Z,38.02
2019-01-25T19:06:30.890Z,38.10
2019-01-25T19:08:59.054Z,37.83
2019-01-25T19:11:26.848Z,38.28
2019-01-25T19:14:19.796Z,38.15
2019-01-25T19:16:48.100Z,38.52
2019-01-25T19:19:15.934Z,37.81
2019-01-25T19:21:44.369Z,38.19
2019-01-25T19:24:12.622Z,37.66
2019-01-25T19:26:40.579Z,37.96
2019-01-25T19:29:21.480Z,38.20
2019-01-25T19:31:49.290Z,38.42
2019-01-25T19:34:45.695Z,37.57
2019-01-25T19:37:14.227Z,37.73
2019-01-25T19:39:42.076Z,37.87
2019-01-25T19:42:10.360Z,38.01
2019-01-25T19:44:39.087Z,38.50
2019-01-25T19:47:07.409Z,38.36
2019-01-25T19:50:03.634Z,38.14
2019-01-25T19:58:54.727Z,37.80
2019-01-25T20:01:20.120Z,37.48
2019-01-25T20:03:54.334Z,36.92
2019-01-25T20:06:22.192Z,37.42
2019-01-25T20:08:50.258Z,38.03
2019-01-25T20:11:18.323Z,37.97
2019-01-25T20:13:46.434Z,37.88
2019-01-25T20:16:26.584Z,37.93
2019-01-25T20:21:47.480Z,38.41
2019-01-25T20:24:23.636Z,38.84
2019-01-25T20:26:50.695Z,38.75
2019-01-25T20:29:18.873Z,38.79
2019-01-25T20:31:46.695Z,38.73
2019-01-25T20:34:39.912Z,38.81
2019-01-25T20:37:07.767Z,38.77
2019-01-25T20:39:35.723Z,38.93
2019-01-25T20:42:03.568Z,38.42
2019-01-25T20:44:31.342Z,38.06
2019-01-25T20:49:34.370Z,38.51
2019-01-25T20:52:02.231Z,38.91
2019-01-25T20:54:30.220Z,38.57
2019-01-25T20:57:12.401Z,38.49
2019-01-25T21:00:13.935Z,38.19
2019-01-25T21:02:42.064Z,38.50
2019-01-25T21:05:09.929Z,38.50
2019-01-25T21:07:38.708Z,38.09
2019-01-25T21:10:08.020Z,38.12
2019-01-25T21:12:47.642Z,38.65
2019-01-25T21:15:16.076Z,38.40
2019-01-25T21:17:44.370Z,38.11
2019-01-25T21:20:13.422Z,38.63
2019-01-25T21:22:41.496Z,38.28
2019-01-25T21:25:09.276Z,38.13
2019-01-25T21:27:37.380Z,38.40
2019-01-25T21:30:05.918Z,38.66
2019-01-25T21:32:33.728Z,38.80
2019-01-25T21:35:01.746Z,38.28
2019-01-25T21:37:30.079Z,38.76
2019-01-25T21:39:58.379Z,38.41
2019-01-25T21:42:26.931Z,38.63
2019-01-25T21:44:55.612Z,38.64
2019-01-25T21:47:47.745Z,39.24
2019-01-25T21:50:13.892Z,38.43
2019-01-25T21:52:41.730Z,38.58
2019-01-25T21:55:10.831Z,38.94
2019-01-25T21:57:38.717Z,39.14
2019-01-25T22:00:14.809Z,39.50
2019-01-25T22:02:43.169Z,38.97
2019-01-25T22:05:11.573Z,39.33
2019-01-25T22:07:40.109Z,39.17
2019-01-25T22:10:35.901Z,39.23
2019-01-25T22:13:17.359Z,39.53
2019-01-25T22:15:42.652Z,38.94
2019-01-25T22:18:10.929Z,39.53
2019-01-25T22:20:39.069Z,39.16
2019-01-25T22:23:07.239Z,39.12
2019-01-25T22:26:14.144Z,39.41
2019-01-25T22:28:42.452Z,39.57
2019-01-25T22:31:10.613Z,39.83
2019-01-25T22:33:38.628Z,39.48
2019-01-25T22:36:06.364Z,39.71
2019-01-25T22:38:34.658Z,39.81
2019-01-25T22:41:02.672Z,39.79
2019-01-25T22:43:31.161Z,40.09
2019-01-25T22:45:59.063Z,40.02
2019-01-25T22:48:27.464Z,40.08
2019-01-25T22:51:29.563Z,40.28
2019-01-25T22:53:58.506Z,40.32
2019-01-25T22:56:29.180Z,40.24
2019-01-25T22:58:58.981Z,40.60
2019-01-25T23:01:31.726Z,40.12
2019-01-25T23:04:24.675Z,40.60
2019-01-25T23:10:27.329Z,40.85
2019-01-25T23:12:55.219Z,40.84
2019-01-25T23:15:23.300Z,40.56
2019-01-25T23:17:51.345Z,40.40
2019-01-25T23:20:19.209Z,40.63
2019-01-25T23:22:47.047Z,40.51
2019-01-25T23:25:15.022Z,40.33
2019-01-25T23:27:43.336Z,40.60
2019-01-25T23:30:47.084Z,40.86
2019-01-25T23:32:46.259Z,40.84
